sensor_id;sensor_type;location;lat;lon;timestamp;P1;durP1;ratioP1;P2;durP2;ratioP2
17943;SDS011;9097;47.028;15.444;2023-04-16T00:01:33;2.20;;;2.00;;
17943;SDS011;9097;47.028;15.444;2023-04-16T00:04:35;5.17;;;1.27;;
17943;SDS011;9097;47.028;15.444;2023-04-16T00:07:39;1.43;;;1.00;;
17943;SDS011;9097;47.028;15.444;2023-04-16T00:10:42;1.50;;;0.70;;
17943;SDS011;9097;47.028;15.444;2023-04-16T00:13:44;1.67;;;1.20;;
17943;SDS011;9097;47.028;15.444;2023-04-16T00:16:46;2.90;;;1.33;;
17943;SDS011;9097;47.028;15.444;2023-04-16T00:19:49;1.17;;;0.77;;
17943;SDS011;9097;47.028;15.444;2023-04-16T00:22:53;1.50;;;1.27;;
17943;SDS011;9097;47.028;15.444;2023-04-16T00:25:55;0.87;;;0.80;;
17943;SDS011;9097;47.028;15.444;2023-04-16T00:28:59;1.00;;;0.73;;
17943;SDS011;9097;47.028;15.444;2023-04-16T00:32:02;0.53;;;0.40;;
17943;SDS011;9097;47.028;15.444;2023-04-16T00:35:05;1.23;;;0.77;;
17943;SDS011;9097;47.028;15.444;2023-04-16T00:38:10;0.50;;;0.43;;
17943;SDS011;9097;47.028;15.444;2023-04-16T00:41:14;0.30;;;0.30;;
17943;SDS011;9097;47.028;15.444;2023-04-16T00:44:16;0.70;;;0.70;;
17943;SDS011;9097;47.028;15.444;2023-04-16T00:47:19;1.13;;;0.80;;
17943;SDS011;9097;47.028;15.444;2023-04-16T00:50:22;0.97;;;0.53;;
17943;SDS011;9097;47.028;15.444;2023-04-16T00:53:27;0.57;;;0.47;;
17943;SDS011;9097;47.028;15.444;2023-04-16T00:56:29;0.30;;;0.30;;
17943;SDS011;9097;47.028;15.444;2023-04-16T00:59:33;0.67;;;0.60;;
17943;SDS011;9097;47.028;15.444;2023-04-16T01:02:35;2.13;;;1.37;;
17943;SDS011;9097;47.028;15.444;2023-04-16T01:05:38;1.10;;;0.87;;
17943;SDS011;9097;47.028;15.444;2023-04-16T01:08:42;2.43;;;1.03;;
17943;SDS011;9097;47.028;15.444;2023-04-16T01:11:44;2.50;;;1.47;;
17943;SDS011;9097;47.028;15.444;2023-04-16T01:14:47;0.10;;;0.10;;
17943;SDS011;9097;47.028;15.444;2023-04-16T01:17:49;1.43;;;0.63;;
17943;SDS011;9097;47.028;15.444;2023-04-16T01:20:53;0.30;;;0.30;;
17943;SDS011;9097;47.028;15.444;2023-04-16T01:23:56;0.73;;;0.67;;
17943;SDS011;9097;47.028;15.444;2023-04-16T01:26:58;0.33;;;0.33;;
17943;SDS011;9097;47.028;15.444;2023-04-16T01:30:00;0.60;;;0.20;;
17943;SDS011;9097;47.028;15.444;2023-04-16T01:33:03;0.90;;;0.70;;
17943;SDS011;9097;47.028;15.444;2023-04-16T01:36:07;1.00;;;0.73;;
17943;SDS011;9097;47.028;15.444;2023-04-16T01:39:10;0.30;;;0.30;;
17943;SDS011;9097;47.028;15.444;2023-04-16T01:42:14;0.90;;;0.30;;
17943;SDS011;9097;47.028;15.444;2023-04-16T01:45:17;1.50;;;0.70;;
17943;SDS011;9097;47.028;15.444;2023-04-16T01:48:20;4.40;;;0.90;;
17943;SDS011;9097;47.028;15.444;2023-04-16T01:51:23;0.37;;;0.20;;
17943;SDS011;9097;47.028;15.444;2023-04-16T01:54:27;0.60;;;0.60;;
17943;SDS011;9097;47.028;15.444;2023-04-16T01:57:29;1.80;;;0.70;;
17943;SDS011;9097;47.028;15.444;2023-04-16T02:00:32;0.50;;;0.50;;
17943;SDS011;9097;47.028;15.444;2023-04-16T02:03:34;0.20;;;0.20;;
17943;SDS011;9097;47.028;15.444;2023-04-16T02:06:38;0.60;;;0.60;;
17943;SDS011;9097;47.028;15.444;2023-04-16T02:09:41;1.23;;;0.73;;
17943;SDS011;9097;47.028;15.444;2023-04-16T02:12:43;0.23;;;0.23;;
17943;SDS011;9097;47.028;15.444;2023-04-16T02:15:47;2.97;;;1.30;;
17943;SDS011;9097;47.028;15.444;2023-04-16T02:18:50;0.57;;;0.50;;
17943;SDS011;9097;47.028;15.444;2023-04-16T02:21:53;0.93;;;0.63;;
17943;SDS011;9097;47.028;15.444;2023-04-16T02:24:56;0.47;;;0.43;;
17943;SDS011;9097;47.028;15.444;2023-04-16T02:27:58;1.17;;;0.70;;
17943;SDS011;9097;47.028;15.444;2023-04-16T02:31:01;0.33;;;0.33;;
17943;SDS011;9097;47.028;15.444;2023-04-16T02:34:03;0.40;;;0.40;;
17943;SDS011;9097;47.028;15.444;2023-04-16T02:37:08;0.57;;;0.53;;
17943;SDS011;9097;47.028;15.444;2023-04-16T02:40:10;0.60;;;0.43;;
17943;SDS011;9097;47.028;15.444;2023-04-16T02:43:13;0.60;;;0.60;;
17943;SDS011;9097;47.028;15.444;2023-04-16T02:46:15;4.83;;;1.60;;
17943;SDS011;9097;47.028;15.444;2023-04-16T02:49:18;0.63;;;0.60;;
17943;SDS011;9097;47.028;15.444;2023-04-16T02:52:22;0.83;;;0.47;;
17943;SDS011;9097;47.028;15.444;2023-04-16T02:55:24;0.80;;;0.80;;
17943;SDS011;9097;47.028;15.444;2023-04-16T02:58:28;0.90;;;0.73;;
17943;SDS011;9097;47.028;15.444;2023-04-16T03:01:31;1.07;;;0.80;;
17943;SDS011;9097;47.028;15.444;2023-04-16T03:04:33;1.80;;;1.10;;
17943;SDS011;9097;47.028;15.444;2023-04-16T03:07:37;0.27;;;0.27;;
17943;SDS011;9097;47.028;15.444;2023-04-16T03:10:40;0.63;;;0.63;;
17943;SDS011;9097;47.028;15.444;2023-04-16T03:13:42;2.00;;;1.53;;
17943;SDS011;9097;47.028;15.444;2023-04-16T03:16:45;0.60;;;0.60;;
17943;SDS011;9097;47.028;15.444;2023-04-16T03:19:47;0.97;;;0.50;;
17943;SDS011;9097;47.028;15.444;2023-04-16T03:22:51;0.93;;;0.63;;
17943;SDS011;9097;47.028;15.444;2023-04-16T03:25:54;1.20;;;0.60;;
17943;SDS011;9097;47.028;15.444;2023-04-16T03:28:56;1.00;;;0.90;;
17943;SDS011;9097;47.028;15.444;2023-04-16T03:31:59;0.33;;;0.33;;
17943;SDS011;9097;47.028;15.444;2023-04-16T03:35:01;1.40;;;1.30;;
17943;SDS011;9097;47.028;15.444;2023-04-16T03:38:05;0.77;;;0.30;;
17943;SDS011;9097;47.028;15.444;2023-04-16T03:41:08;0.63;;;0.63;;
17943;SDS011;9097;47.028;15.444;2023-04-16T03:44:10;0.30;;;0.30;;
17943;SDS011;9097;47.028;15.444;2023-04-16T03:47:12;0.93;;;0.53;;
17943;SDS011;9097;47.028;15.444;2023-04-16T03:50:15;1.40;;;0.93;;
17943;SDS011;9097;47.028;15.444;2023-04-16T03:53:19;0.83;;;0.67;;
17943;SDS011;9097;47.028;15.444;2023-04-16T03:56:21;0.47;;;0.47;;
17943;SDS011;9097;47.028;15.444;2023-04-16T03:59:24;1.33;;;0.60;;
17943;SDS011;9097;47.028;15.444;2023-04-16T04:02:26;0.10;;;0.10;;
17943;SDS011;9097;47.028;15.444;2023-04-16T04:05:29;0.30;;;0.27;;
17943;SDS011;9097;47.028;15.444;2023-04-16T04:08:32;0.73;;;0.73;;
17943;SDS011;9097;47.028;15.444;2023-04-16T04:11:35;1.03;;;0.47;;
17943;SDS011;9097;47.028;15.444;2023-04-16T04:14:38;1.13;;;0.50;;
17943;SDS011;9097;47.028;15.444;2023-04-16T04:17:40;3.60;;;0.63;;
17943;SDS011;9097;47.028;15.444;2023-04-16T04:20:43;0.90;;;0.50;;
17943;SDS011;9097;47.028;15.444;2023-04-16T04:23:47;1.27;;;0.93;;
17943;SDS011;9097;47.028;15.444;2023-04-16T04:26:49;0.40;;;0.40;;
17943;SDS011;9097;47.028;15.444;2023-04-16T04:29:52;0.97;;;0.70;;
17943;SDS011;9097;47.028;15.444;2023-04-16T04:32:54;0.93;;;0.63;;
17943;SDS011;9097;47.028;15.444;2023-04-16T04:35:57;2.33;;;1.40;;
17943;SDS011;9097;47.028;15.444;2023-04-16T04:39:01;0.30;;;0.30;;
17943;SDS011;9097;47.028;15.444;2023-04-16T04:42:03;1.57;;;1.20;;
17943;SDS011;9097;47.028;15.444;2023-04-16T04:45:06;0.43;;;0.43;;
17943;SDS011;9097;47.028;15.444;2023-04-16T04:48:09;0.73;;;0.73;;
17943;SDS011;9097;47.028;15.444;2023-04-16T04:51:11;1.90;;;0.80;;
17943;SDS011;9097;47.028;15.444;2023-04-16T04:54:15;2.37;;;1.00;;
17943;SDS011;9097;47.028;15.444;2023-04-16T04:57:17;0.70;;;0.70;;
17943;SDS011;9097;47.028;15.444;2023-04-16T05:00:20;1.20;;;1.10;;
17943;SDS011;9097;47.028;15.444;2023-04-16T05:03:22;0.37;;;0.37;;
17943;SDS011;9097;47.028;15.444;2023-04-16T05:06:25;4.43;;;0.60;;
17943;SDS011;9097;47.028;15.444;2023-04-16T05:09:28;1.13;;;0.83;;
17943;SDS011;9097;47.028;15.444;2023-04-16T05:12:31;1.37;;;1.23;;
17943;SDS011;9097;47.028;15.444;2023-04-16T05:15:33;1.23;;;1.10;;
17943;SDS011;9097;47.028;15.444;2023-04-16T05:18:36;5.53;;;0.90;;
17943;SDS011;9097;47.028;15.444;2023-04-16T05:21:38;1.03;;;0.77;;
17943;SDS011;9097;47.028;15.444;2023-04-16T05:24:42;1.50;;;0.70;;
17943;SDS011;9097;47.028;15.444;2023-04-16T05:27:45;0.87;;;0.87;;
17943;SDS011;9097;47.028;15.444;2023-04-16T05:30:48;1.00;;;1.00;;
17943;SDS011;9097;47.028;15.444;2023-04-16T05:33:50;2.57;;;2.00;;
17943;SDS011;9097;47.028;15.444;2023-04-16T05:36:53;1.60;;;1.33;;
17943;SDS011;9097;47.028;15.444;2023-04-16T05:39:56;2.43;;;1.73;;
17943;SDS011;9097;47.028;15.444;2023-04-16T05:42:59;2.57;;;1.97;;
17943;SDS011;9097;47.028;15.444;2023-04-16T05:46:01;0.57;;;0.57;;
17943;SDS011;9097;47.028;15.444;2023-04-16T05:49:04;1.17;;;1.07;;
17943;SDS011;9097;47.028;15.444;2023-04-16T05:52:06;1.17;;;0.93;;
17943;SDS011;9097;47.028;15.444;2023-04-16T05:55:10;3.10;;;1.33;;
17943;SDS011;9097;47.028;15.444;2023-04-16T05:58:13;1.30;;;1.00;;
17943;SDS011;9097;47.028;15.444;2023-04-16T06:01:15;1.50;;;1.40;;
17943;SDS011;9097;47.028;15.444;2023-04-16T06:04:17;2.77;;;1.90;;
17943;SDS011;9097;47.028;15.444;2023-04-16T06:07:20;2.23;;;1.10;;
17943;SDS011;9097;47.028;15.444;2023-04-16T06:10:24;2.57;;;1.23;;
17943;SDS011;9097;47.028;15.444;2023-04-16T06:13:26;1.73;;;1.43;;
17943;SDS011;9097;47.028;15.444;2023-04-16T06:16:30;5.03;;;2.20;;
17943;SDS011;9097;47.028;15.444;2023-04-16T06:19:32;2.00;;;1.50;;
17943;SDS011;9097;47.028;15.444;2023-04-16T06:22:35;1.90;;;1.00;;
17943;SDS011;9097;47.028;15.444;2023-04-16T06:25:39;3.67;;;2.10;;
17943;SDS011;9097;47.028;15.444;2023-04-16T06:28:41;1.83;;;1.63;;
17943;SDS011;9097;47.028;15.444;2023-04-16T06:31:44;3.50;;;2.47;;
17943;SDS011;9097;47.028;15.444;2023-04-16T06:34:46;1.57;;;1.13;;
17943;SDS011;9097;47.028;15.444;2023-04-16T06:37:49;2.87;;;1.70;;
17943;SDS011;9097;47.028;15.444;2023-04-16T06:40:53;1.60;;;1.50;;
17943;SDS011;9097;47.028;15.444;2023-04-16T06:43:55;1.93;;;1.57;;
17943;SDS011;9097;47.028;15.444;2023-04-16T06:46:58;4.20;;;1.90;;
17943;SDS011;9097;47.028;15.444;2023-04-16T06:50:00;1.57;;;1.03;;
17943;SDS011;9097;47.028;15.444;2023-04-16T06:53:03;1.37;;;1.27;;
17943;SDS011;9097;47.028;15.444;2023-04-16T06:56:07;1.00;;;0.90;;
17943;SDS011;9097;47.028;15.444;2023-04-16T06:59:10;3.00;;;2.03;;
17943;SDS011;9097;47.028;15.444;2023-04-16T07:02:12;0.80;;;0.80;;
17943;SDS011;9097;47.028;15.444;2023-04-16T07:05:15;2.77;;;1.90;;
17943;SDS011;9097;47.028;15.444;2023-04-16T07:08:17;1.60;;;1.33;;
17943;SDS011;9097;47.028;15.444;2023-04-16T07:11:21;1.57;;;1.17;;
17943;SDS011;9097;47.028;15.444;2023-04-16T07:14:25;1.17;;;0.93;;
17943;SDS011;9097;47.028;15.444;2023-04-16T07:17:27;3.57;;;2.27;;
17943;SDS011;9097;47.028;15.444;2023-04-16T07:20:30;1.87;;;1.43;;
17943;SDS011;9097;47.028;15.444;2023-04-16T07:23:32;3.07;;;1.60;;
17943;SDS011;9097;47.028;15.444;2023-04-16T07:26:36;2.57;;;1.23;;
17943;SDS011;9097;47.028;15.444;2023-04-16T07:29:39;1.40;;;1.30;;
17943;SDS011;9097;47.028;15.444;2023-04-16T07:32:41;2.60;;;1.27;;
17943;SDS011;9097;47.028;15.444;2023-04-16T07:35:44;1.77;;;0.90;;
17943;SDS011;9097;47.028;15.444;2023-04-16T07:38:47;2.03;;;1.53;;
17943;SDS011;9097;47.028;15.444;2023-04-16T07:41:51;2.23;;;1.33;;
17943;SDS011;9097;47.028;15.444;2023-04-16T07:44:53;0.70;;;0.70;;
17943;SDS011;9097;47.028;15.444;2023-04-16T07:47:56;1.27;;;0.93;;
17943;SDS011;9097;47.028;15.444;2023-04-16T07:50:59;1.97;;;1.50;;
17943;SDS011;9097;47.028;15.444;2023-04-16T07:54:01;9.37;;;1.77;;
17943;SDS011;9097;47.028;15.444;2023-04-16T07:57:05;3.23;;;2.23;;
17943;SDS011;9097;47.028;15.444;2023-04-16T08:00:08;3.43;;;1.90;;
17943;SDS011;9097;47.028;15.444;2023-04-16T08:03:11;3.17;;;1.77;;
17943;SDS011;9097;47.028;15.444;2023-04-16T08:06:15;1.93;;;1.30;;
17943;SDS011;9097;47.028;15.444;2023-04-16T08:09:18;3.03;;;0.97;;
17943;SDS011;9097;47.028;15.444;2023-04-16T08:12:22;4.20;;;1.67;;
17943;SDS011;9097;47.028;15.444;2023-04-16T08:15:25;2.83;;;1.80;;
17943;SDS011;9097;47.028;15.444;2023-04-16T08:18:27;1.37;;;1.00;;
17943;SDS011;9097;47.028;15.444;2023-04-16T08:21:29;3.17;;;1.60;;
17943;SDS011;9097;47.028;15.444;2023-04-16T08:24:32;1.10;;;1.00;;
17943;SDS011;9097;47.028;15.444;2023-04-16T08:27:36;1.40;;;1.03;;
17943;SDS011;9097;47.028;15.444;2023-04-16T08:30:38;1.43;;;1.27;;
17943;SDS011;9097;47.028;15.444;2023-04-16T08:33:40;1.80;;;1.57;;
17943;SDS011;9097;47.028;15.444;2023-04-16T08:36:43;0.83;;;0.83;;
17943;SDS011;9097;47.028;15.444;2023-04-16T08:39:45;0.83;;;0.80;;
17943;SDS011;9097;47.028;15.444;2023-04-16T08:42:51;1.87;;;1.20;;
17943;SDS011;9097;47.028;15.444;2023-04-16T08:45:55;1.23;;;0.70;;
17943;SDS011;9097;47.028;15.444;2023-04-16T08:48:58;1.07;;;0.80;;
17943;SDS011;9097;47.028;15.444;2023-04-16T08:52:01;1.57;;;1.20;;
17943;SDS011;9097;47.028;15.444;2023-04-16T08:55:09;1.57;;;1.47;;
17943;SDS011;9097;47.028;15.444;2023-04-16T08:58:14;1.90;;;1.20;;
17943;SDS011;9097;47.028;15.444;2023-04-16T09:01:20;1.27;;;1.17;;
17943;SDS011;9097;47.028;15.444;2023-04-16T09:04:25;1.27;;;1.00;;
17943;SDS011;9097;47.028;15.444;2023-04-16T09:07:29;2.00;;;1.37;;
17943;SDS011;9097;47.028;15.444;2023-04-16T09:10:32;1.40;;;1.20;;
17943;SDS011;9097;47.028;15.444;2023-04-16T09:13:37;0.60;;;0.60;;
17943;SDS011;9097;47.028;15.444;2023-04-16T09:16:39;0.90;;;0.80;;
17943;SDS011;9097;47.028;15.444;2023-04-16T09:19:42;0.97;;;0.50;;
17943;SDS011;9097;47.028;15.444;2023-04-16T09:22:45;0.93;;;0.60;;
17943;SDS011;9097;47.028;15.444;2023-04-16T09:25:47;1.27;;;0.83;;
17943;SDS011;9097;47.028;15.444;2023-04-16T09:28:51;2.53;;;1.53;;
17943;SDS011;9097;47.028;15.444;2023-04-16T09:32:00;1.20;;;1.10;;
17943;SDS011;9097;47.028;15.444;2023-04-16T09:35:03;2.10;;;0.93;;
17943;SDS011;9097;47.028;15.444;2023-04-16T09:38:06;1.37;;;1.27;;
17943;SDS011;9097;47.028;15.444;2023-04-16T09:41:08;2.57;;;1.30;;
17943;SDS011;9097;47.028;15.444;2023-04-16T09:44:12;1.03;;;0.90;;
17943;SDS011;9097;47.028;15.444;2023-04-16T09:47:14;0.77;;;0.70;;
17943;SDS011;9097;47.028;15.444;2023-04-16T09:50:17;2.93;;;1.37;;
17943;SDS011;9097;47.028;15.444;2023-04-16T09:53:22;1.93;;;1.33;;
17943;SDS011;9097;47.028;15.444;2023-04-16T09:56:25;1.40;;;1.30;;
17943;SDS011;9097;47.028;15.444;2023-04-16T09:59:30;1.03;;;0.87;;
17943;SDS011;9097;47.028;15.444;2023-04-16T10:02:33;1.10;;;1.00;;
17943;SDS011;9097;47.028;15.444;2023-04-16T10:05:38;1.33;;;0.70;;
17943;SDS011;9097;47.028;15.444;2023-04-16T10:08:41;1.10;;;0.77;;
17943;SDS011;9097;47.028;15.444;2023-04-16T10:11:44;0.50;;;0.50;;
17943;SDS011;9097;47.028;15.444;2023-04-16T10:14:50;0.40;;;0.40;;
17943;SDS011;9097;47.028;15.444;2023-04-16T10:17:53;0.83;;;0.83;;
17943;SDS011;9097;47.028;15.444;2023-04-16T10:20:55;0.97;;;0.70;;
17943;SDS011;9097;47.028;15.444;2023-04-16T10:23:58;1.37;;;0.73;;
17943;SDS011;9097;47.028;15.444;2023-04-16T10:27:01;0.67;;;0.67;;
17943;SDS011;9097;47.028;15.444;2023-04-16T10:30:06;0.87;;;0.50;;
17943;SDS011;9097;47.028;15.444;2023-04-16T10:33:09;0.40;;;0.40;;
17943;SDS011;9097;47.028;15.444;2023-04-16T10:36:12;0.97;;;0.63;;
17943;SDS011;9097;47.028;15.444;2023-04-16T10:39:17;0.77;;;0.60;;
17943;SDS011;9097;47.028;15.444;2023-04-16T10:42:20;1.17;;;0.87;;
17943;SDS011;9097;47.028;15.444;2023-04-16T10:45:28;0.67;;;0.63;;
17943;SDS011;9097;47.028;15.444;2023-04-16T10:48:31;0.63;;;0.50;;
17943;SDS011;9097;47.028;15.444;2023-04-16T10:51:34;0.40;;;0.40;;
17943;SDS011;9097;47.028;15.444;2023-04-16T10:54:37;0.83;;;0.40;;
17943;SDS011;9097;47.028;15.444;2023-04-16T10:57:40;0.50;;;0.50;;
17943;SDS011;9097;47.028;15.444;2023-04-16T11:00:50;0.20;;;0.20;;
17943;SDS011;9097;47.028;15.444;2023-04-16T11:03:53;0.20;;;0.20;;
17943;SDS011;9097;47.028;15.444;2023-04-16T11:07:02;0.30;;;0.30;;
17943;SDS011;9097;47.028;15.444;2023-04-16T11:10:05;0.23;;;0.10;;
17943;SDS011;9097;47.028;15.444;2023-04-16T11:13:07;0.87;;;0.43;;
17943;SDS011;9097;47.028;15.444;2023-04-16T11:16:15;1.17;;;0.40;;
17943;SDS011;9097;47.028;15.444;2023-04-16T11:19:18;0.50;;;0.50;;
17943;SDS011;9097;47.028;15.444;2023-04-16T11:22:21;0.63;;;0.40;;
17943;SDS011;9097;47.028;15.444;2023-04-16T11:25:24;0.30;;;0.30;;
17943;SDS011;9097;47.028;15.444;2023-04-16T11:28:32;0.73;;;0.20;;
17943;SDS011;9097;47.028;15.444;2023-04-16T11:31:36;0.20;;;0.20;;
17943;SDS011;9097;47.028;15.444;2023-04-16T11:34:42;0.50;;;0.20;;
17943;SDS011;9097;47.028;15.444;2023-04-16T11:37:46;0.57;;;0.53;;
17943;SDS011;9097;47.028;15.444;2023-04-16T11:40:48;0.10;;;0.10;;
17943;SDS011;9097;47.028;15.444;2023-04-16T11:43:53;0.43;;;0.40;;
17943;SDS011;9097;47.028;15.444;2023-04-16T11:46:57;0.67;;;0.40;;
17943;SDS011;9097;47.028;15.444;2023-04-16T11:50:17;0.20;;;0.20;;
17943;SDS011;9097;47.028;15.444;2023-04-16T11:53:19;0.40;;;0.33;;
17943;SDS011;9097;47.028;15.444;2023-04-16T11:56:25;0.40;;;0.40;;
17943;SDS011;9097;47.028;15.444;2023-04-16T11:59:28;0.67;;;0.30;;
17943;SDS011;9097;47.028;15.444;2023-04-16T12:02:36;0.47;;;0.17;;
17943;SDS011;9097;47.028;15.444;2023-04-16T12:05:39;1.23;;;0.30;;
17943;SDS011;9097;47.028;15.444;2023-04-16T12:08:41;7.47;;;0.93;;
17943;SDS011;9097;47.028;15.444;2023-04-16T12:11:44;0.10;;;0.00;;
17943;SDS011;9097;47.028;15.444;2023-04-16T12:14:48;1.20;;;0.50;;
17943;SDS011;9097;47.028;15.444;2023-04-16T12:17:52;0.20;;;0.20;;
17943;SDS011;9097;47.028;15.444;2023-04-16T12:21:08;0.47;;;0.30;;
17943;SDS011;9097;47.028;15.444;2023-04-16T12:24:11;0.83;;;0.57;;
17943;SDS011;9097;47.028;15.444;2023-04-16T12:27:14;0.23;;;0.23;;
17943;SDS011;9097;47.028;15.444;2023-04-16T12:30:17;0.30;;;0.20;;
17943;SDS011;9097;47.028;15.444;2023-04-16T12:33:21;0.60;;;0.20;;
17943;SDS011;9097;47.028;15.444;2023-04-16T12:36:24;0.30;;;0.30;;
17943;SDS011;9097;47.028;15.444;2023-04-16T12:39:28;0.10;;;0.10;;
17943;SDS011;9097;47.028;15.444;2023-04-16T12:42:31;0.20;;;0.20;;
17943;SDS011;9097;47.028;15.444;2023-04-16T12:45:35;0.17;;;0.10;;
17943;SDS011;9097;47.028;15.444;2023-04-16T12:48:39;0.30;;;0.30;;
17943;SDS011;9097;47.028;15.444;2023-04-16T12:51:42;0.80;;;0.30;;
17943;SDS011;9097;47.028;15.444;2023-04-16T12:54:45;0.50;;;0.27;;
17943;SDS011;9097;47.028;15.444;2023-04-16T12:57:47;0.33;;;0.20;;
17943;SDS011;9097;47.028;15.444;2023-04-16T13:00:51;0.10;;;0.10;;
17943;SDS011;9097;47.028;15.444;2023-04-16T13:03:55;1.40;;;0.13;;
17943;SDS011;9097;47.028;15.444;2023-04-16T13:06:58;0.47;;;0.23;;
17943;SDS011;9097;47.028;15.444;2023-04-16T13:10:01;0.37;;;0.20;;
17943;SDS011;9097;47.028;15.444;2023-04-16T13:13:04;0.00;;;0.00;;
17943;SDS011;9097;47.028;15.444;2023-04-16T13:16:06;0.20;;;0.20;;
17943;SDS011;9097;47.028;15.444;2023-04-16T13:19:10;0.40;;;0.40;;
17943;SDS011;9097;47.028;15.444;2023-04-16T13:22:12;1.07;;;0.53;;
17943;SDS011;9097;47.028;15.444;2023-04-16T13:25:15;0.50;;;0.30;;
17943;SDS011;9097;47.028;15.444;2023-04-16T13:28:18;0.17;;;0.17;;
17943;SDS011;9097;47.028;15.444;2023-04-16T13:31:20;0.30;;;0.20;;
17943;SDS011;9097;47.028;15.444;2023-04-16T13:34:24;0.50;;;0.50;;
17943;SDS011;9097;47.028;15.444;2023-04-16T13:37:27;0.00;;;0.00;;
17943;SDS011;9097;47.028;15.444;2023-04-16T13:40:29;0.30;;;0.30;;
17943;SDS011;9097;47.028;15.444;2023-04-16T13:43:32;0.40;;;0.37;;
17943;SDS011;9097;47.028;15.444;2023-04-16T13:46:34;0.17;;;0.17;;
17943;SDS011;9097;47.028;15.444;2023-04-16T13:49:38;0.43;;;0.17;;
17943;SDS011;9097;47.028;15.444;2023-04-16T13:52:41;0.27;;;0.27;;
17943;SDS011;9097;47.028;15.444;2023-04-16T13:55:43;0.20;;;0.20;;
17943;SDS011;9097;47.028;15.444;2023-04-16T13:58:46;0.60;;;0.17;;
17943;SDS011;9097;47.028;15.444;2023-04-16T14:01:49;0.50;;;0.33;;
17943;SDS011;9097;47.028;15.444;2023-04-16T14:04:53;0.57;;;0.30;;
17943;SDS011;9097;47.028;15.444;2023-04-16T14:07:56;0.30;;;0.30;;
17943;SDS011;9097;47.028;15.444;2023-04-16T14:10:58;0.40;;;0.20;;
17943;SDS011;9097;47.028;15.444;2023-04-16T14:14:02;0.40;;;0.40;;
17943;SDS011;9097;47.028;15.444;2023-04-16T14:17:04;0.40;;;0.30;;
17943;SDS011;9097;47.028;15.444;2023-04-16T14:20:09;1.13;;;0.50;;
17943;SDS011;9097;47.028;15.444;2023-04-16T14:23:12;0.30;;;0.30;;
17943;SDS011;9097;47.028;15.444;2023-04-16T14:26:14;0.63;;;0.20;;
17943;SDS011;9097;47.028;15.444;2023-04-16T14:29:17;0.77;;;0.37;;
17943;SDS011;9097;47.028;15.444;2023-04-16T14:32:20;0.30;;;0.30;;
17943;SDS011;9097;47.028;15.444;2023-04-16T14:35:24;0.77;;;0.50;;
17943;SDS011;9097;47.028;15.444;2023-04-16T14:38:26;0.40;;;0.17;;
17943;SDS011;9097;47.028;15.444;2023-04-16T14:41:29;0.60;;;0.60;;
17943;SDS011;9097;47.028;15.444;2023-04-16T14:44:31;0.30;;;0.30;;
17943;SDS011;9097;47.028;15.444;2023-04-16T14:47:35;0.27;;;0.27;;
17943;SDS011;9097;47.028;15.444;2023-04-16T14:50:46;0.10;;;0.10;;
17943;SDS011;9097;47.028;15.444;2023-04-16T14:53:49;0.27;;;0.27;;
17943;SDS011;9097;47.028;15.444;2023-04-16T14:56:52;0.13;;;0.10;;
17943;SDS011;9097;47.028;15.444;2023-04-16T14:59:55;0.90;;;0.40;;
17943;SDS011;9097;47.028;15.444;2023-04-16T15:02:58;0.10;;;0.07;;
17943;SDS011;9097;47.028;15.444;2023-04-16T15:06:01;1.53;;;0.30;;
17943;SDS011;9097;47.028;15.444;2023-04-16T15:09:06;0.40;;;0.37;;
17943;SDS011;9097;47.028;15.444;2023-04-16T15:12:08;1.73;;;0.50;;
17943;SDS011;9097;47.028;15.444;2023-04-16T15:15:11;1.73;;;0.27;;
17943;SDS011;9097;47.028;15.444;2023-04-16T15:18:15;0.30;;;0.30;;
17943;SDS011;9097;47.028;15.444;2023-04-16T15:21:19;0.43;;;0.43;;
17943;SDS011;9097;47.028;15.444;2023-04-16T15:24:22;0.63;;;0.40;;
17943;SDS011;9097;47.028;15.444;2023-04-16T15:27:24;0.40;;;0.30;;
17943;SDS011;9097;47.028;15.444;2023-04-16T15:30:27;0.43;;;0.43;;
17943;SDS011;9097;47.028;15.444;2023-04-16T15:33:29;1.40;;;0.27;;
17943;SDS011;9097;47.028;15.444;2023-04-16T15:36:34;0.20;;;0.20;;
17943;SDS011;9097;47.028;15.444;2023-04-16T15:39:37;0.67;;;0.50;;
17943;SDS011;9097;47.028;15.444;2023-04-16T15:42:39;0.40;;;0.40;;
17943;SDS011;9097;47.028;15.444;2023-04-16T15:45:42;0.67;;;0.40;;
17943;SDS011;9097;47.028;15.444;2023-04-16T15:48:44;0.20;;;0.20;;
17943;SDS011;9097;47.028;15.444;2023-04-16T15:51:48;0.50;;;0.50;;
17943;SDS011;9097;47.028;15.444;2023-04-16T15:54:51;0.60;;;0.30;;
17943;SDS011;9097;47.028;15.444;2023-04-16T15:57:53;3.70;;;0.50;;
17943;SDS011;9097;47.028;15.444;2023-04-16T16:00:56;0.77;;;0.50;;
17943;SDS011;9097;47.028;15.444;2023-04-16T16:03:58;0.50;;;0.40;;
17943;SDS011;9097;47.028;15.444;2023-04-16T16:07:02;0.87;;;0.47;;
17943;SDS011;9097;47.028;15.444;2023-04-16T16:10:05;0.60;;;0.50;;
17943;SDS011;9097;47.028;15.444;2023-04-16T16:13:09;0.77;;;0.63;;
17943;SDS011;9097;47.028;15.444;2023-04-16T16:16:27;0.83;;;0.57;;
17943;SDS011;9097;47.028;15.444;2023-04-16T16:19:31;1.37;;;0.60;;
17943;SDS011;9097;47.028;15.444;2023-04-16T16:22:33;0.87;;;0.67;;
17943;SDS011;9097;47.028;15.444;2023-04-16T16:25:37;0.47;;;0.47;;
17943;SDS011;9097;47.028;15.444;2023-04-16T16:28:41;1.43;;;0.80;;
17943;SDS011;9097;47.028;15.444;2023-04-16T16:31:45;2.03;;;1.80;;
17943;SDS011;9097;47.028;15.444;2023-04-16T16:34:48;1.80;;;1.43;;
17943;SDS011;9097;47.028;15.444;2023-04-16T16:37:51;0.77;;;0.53;;
17943;SDS011;9097;47.028;15.444;2023-04-16T16:40:56;0.37;;;0.37;;
17943;SDS011;9097;47.028;15.444;2023-04-16T16:43:59;0.77;;;0.50;;
17943;SDS011;9097;47.028;15.444;2023-04-16T16:47:03;0.77;;;0.77;;
17943;SDS011;9097;47.028;15.444;2023-04-16T16:50:06;0.53;;;0.53;;
17943;SDS011;9097;47.028;15.444;2023-04-16T16:53:10;0.20;;;0.20;;
17943;SDS011;9097;47.028;15.444;2023-04-16T16:56:12;0.50;;;0.50;;
17943;SDS011;9097;47.028;15.444;2023-04-16T16:59:15;1.20;;;0.63;;
17943;SDS011;9097;47.028;15.444;2023-04-16T17:02:19;4.27;;;0.60;;
17943;SDS011;9097;47.028;15.444;2023-04-16T17:05:22;0.87;;;0.63;;
17943;SDS011;9097;47.028;15.444;2023-04-16T17:08:25;0.63;;;0.30;;
17943;SDS011;9097;47.028;15.444;2023-04-16T17:11:28;0.40;;;0.40;;
17943;SDS011;9097;47.028;15.444;2023-04-16T17:14:30;0.53;;;0.47;;
17943;SDS011;9097;47.028;15.444;2023-04-16T17:17:34;0.37;;;0.27;;
17943;SDS011;9097;47.028;15.444;2023-04-16T17:20:36;0.20;;;0.20;;
17943;SDS011;9097;47.028;15.444;2023-04-16T17:23:39;0.17;;;0.17;;
17943;SDS011;9097;47.028;15.444;2023-04-16T17:26:41;0.73;;;0.67;;
17943;SDS011;9097;47.028;15.444;2023-04-16T17:29:44;0.77;;;0.63;;
17943;SDS011;9097;47.028;15.444;2023-04-16T17:32:48;0.93;;;0.57;;
17943;SDS011;9097;47.028;15.444;2023-04-16T17:35:51;0.47;;;0.47;;
17943;SDS011;9097;47.028;15.444;2023-04-16T17:38:53;0.50;;;0.50;;
17943;SDS011;9097;47.028;15.444;2023-04-16T17:41:56;0.30;;;0.30;;
17943;SDS011;9097;47.028;15.444;2023-04-16T17:45:00;0.67;;;0.27;;
17943;SDS011;9097;47.028;15.444;2023-04-16T17:48:05;0.67;;;0.40;;
17943;SDS011;9097;47.028;15.444;2023-04-16T17:51:09;1.77;;;0.83;;
17943;SDS011;9097;47.028;15.444;2023-04-16T17:54:12;0.50;;;0.50;;
17943;SDS011;9097;47.028;15.444;2023-04-16T17:57:14;1.07;;;0.60;;
17943;SDS011;9097;47.028;15.444;2023-04-16T18:00:17;2.63;;;0.97;;
17943;SDS011;9097;47.028;15.444;2023-04-16T18:03:22;2.17;;;0.77;;
17943;SDS011;9097;47.028;15.444;2023-04-16T18:06:25;0.80;;;0.70;;
17943;SDS011;9097;47.028;15.444;2023-04-16T18:09:29;1.63;;;1.10;;
17943;SDS011;9097;47.028;15.444;2023-04-16T18:12:37;4.33;;;1.17;;
17943;SDS011;9097;47.028;15.444;2023-04-16T18:15:40;5.80;;;1.70;;
17943;SDS011;9097;47.028;15.444;2023-04-16T18:18:44;2.57;;;1.37;;
17943;SDS011;9097;47.028;15.444;2023-04-16T18:21:46;3.93;;;1.60;;
17943;SDS011;9097;47.028;15.444;2023-04-16T18:24:49;1.67;;;1.33;;